EW8354 Tomares ES current weather conditions

sailwx.info

Wind from 197 at 1 knots gusting 6

Air temperature 38.3° C
Dewpoint 17.1° C

Last reported at 2020-Aug-08 16:00 UTC.
Time now 2020-Aug-08 16:55 UTC

Location: N 37°22' W 006°03'.
View on Google Maps.

See reports from other nearby stations

  
Tides and Currents Weather Stations Pressure Air Temp Water Temp Dewpoint Dewpoint Depression Visibility Wind Speed Wind Dir Waves Ship Positions
date/time (UTC)wind fromknots sea level pressurealtimeterstation pressurevisibilityair tempwater tempwave heightnotes
2020-Aug-08 16:00 197 1 gusting 6 38.3
2020-Aug-08 15:45 145 4 gusting 7 38.3
2020-Aug-08 15:30 140 1 gusting 8 37.8
2020-Aug-08 15:15 190 2 gusting 10 37.8
2020-Aug-08 15:00 238 0 gusting 9 37.8
2020-Aug-08 14:45 176 5 gusting 9 37.2
2020-Aug-08 14:31 190 2 gusting 10 36.7
2020-Aug-08 14:16 189 5 gusting 12 36.1
2020-Aug-08 14:01 171 4 gusting 10 36.1
2020-Aug-08 13:47 247 2 gusting 9 36.1
2020-Aug-08 13:31 186 5 gusting 11 35.6
2020-Aug-08 13:16 227 3 gusting 9 35.6
2020-Aug-08 13:01 224 2 gusting 9 36.1
2020-Aug-08 12:46 215 3 gusting 10 35.6
2020-Aug-08 12:31 169 3 gusting 8 35.6
2020-Aug-08 12:16 173 6 gusting 10 36.1
2020-Aug-08 12:01 177 36.1
2020-Aug-08 11:46 183 36.1
2020-Aug-08 11:30 217 0 gusting 4 35.6
2020-Aug-08 11:15 163 35.0
2020-Aug-08 11:01 207 0 gusting 2 33.9
2020-Aug-08 10:45 057 33.3
2020-Aug-08 10:31 095 33.3
2020-Aug-08 10:15 221 32.8
2020-Aug-08 10:00 340 32.2
2020-Aug-08 09:45 313 0 gusting 2 31.7
2020-Aug-08 09:30 319 31.1
2020-Aug-08 09:15 259 0 gusting 4 30.6
2020-Aug-08 09:00 262 0 gusting 4 30.0
2020-Aug-08 08:46 251 1 gusting 6 28.9
2020-Aug-08 08:31 253 1 gusting 5 28.3
2020-Aug-08 08:17 216 1 gusting 6 27.8
2020-Aug-08 08:01 213 0 gusting 5 27.2
2020-Aug-08 07:45 256 1 gusting 5 26.7
2020-Aug-08 07:30 171 2 gusting 5 26.1
2020-Aug-08 07:15 268 25.0
2020-Aug-08 07:00 268 25.0
2020-Aug-08 06:45 269 24.4
2020-Aug-08 06:30 268 24.4
2020-Aug-08 06:15 269 1 gusting 5 25.0
2020-Aug-08 06:01 145 25.6
2020-Aug-08 05:45 034 0 gusting 2 25.6
2020-Aug-08 05:30 273 0 gusting 2 25.6
2020-Aug-08 05:15 249 25.6
2020-Aug-08 05:01 254 25.6
2020-Aug-08 04:45 263 1 gusting 5 25.0
2020-Aug-08 04:30 276 2 gusting 6 25.0
2020-Aug-08 04:16 257 0 gusting 6 25.0
2020-Aug-08 04:00 227 2 gusting 6 25.0
2020-Aug-08 03:45 237 1 gusting 3 24.4
2020-Aug-08 03:30 234 1 gusting 6 24.4
2020-Aug-08 03:16 251 3 gusting 7 24.4
2020-Aug-08 03:00 217 3 gusting 8 25.0
2020-Aug-08 02:45 234 2 gusting 5 25.0
2020-Aug-08 02:30 229 0 gusting 5 25.0
2020-Aug-08 02:15 232 1 gusting 6 25.6
2020-Aug-08 02:00 251 1 gusting 5 25.6
2020-Aug-08 01:45 219 0 gusting 2 26.1
2020-Aug-08 01:30 261 26.1
2020-Aug-08 01:15 251 0 gusting 4 26.1
2020-Aug-08 01:00 325 26.7
2020-Aug-08 00:45 325 0 gusting 4 26.7
2020-Aug-08 00:30 266 2 gusting 4 26.1
2020-Aug-08 00:15 267 0 gusting 2 26.1
2020-Aug-08 00:00 269 0 gusting 3 26.1
2020-Aug-07 23:48 261 26.1
2020-Aug-07 23:32 259 26.1
2020-Aug-07 23:18 248 0 gusting 3 26.1
2020-Aug-07 23:03 255 26.1
2020-Aug-07 22:47 215 26.1
2020-Aug-07 22:32 242 3 gusting 7 26.1
2020-Aug-07 22:17 225 3 gusting 6 26.1
2020-Aug-07 22:01 232 2 gusting 7 26.7
2020-Aug-07 21:46 226 1 gusting 6 26.7
2020-Aug-07 21:31 220 2 gusting 8 26.7
2020-Aug-07 21:16 227 2 gusting 10 27.2
2020-Aug-07 21:01 240 3 gusting 6 27.8
2020-Aug-07 20:46 252 3 gusting 8 28.3
2020-Aug-07 20:30 232 3 gusting 6 28.3
2020-Aug-07 20:16 239 3 gusting 7 28.9
2020-Aug-07 20:01 234 2 gusting 7 29.4
2020-Aug-07 19:46 196 2 gusting 6 30.0
2020-Aug-07 19:31 214 1 gusting 7 30.6
2020-Aug-07 19:16 187 4 gusting 8 31.1
2020-Aug-07 19:01 228 2 gusting 6 32.2
2020-Aug-07 18:45 213 3 gusting 7 32.8
2020-Aug-07 18:31 220 0 gusting 6 33.3
2020-Aug-07 18:16 190 2 gusting 7 33.9
2020-Aug-07 18:01 228 2 gusting 6 34.4
2020-Aug-07 17:45 230 33.9
2020-Aug-07 17:31 211 34.4
2020-Aug-07 17:16 229 0 gusting 6 34.4
2020-Aug-07 17:01 217 1 gusting 8 34.4
2020-Aug-07 16:46 235 2 gusting 7 34.4
2020-Aug-07 16:31 166 1 gusting 5 35.0
2020-Aug-07 16:15 172 2 gusting 9 33.9
2020-Aug-07 16:01 199 2 gusting 8 34.4
2020-Aug-07 15:46 196 2 gusting 6 34.4
2020-Aug-07 15:32 221 2 gusting 6 34.4
2020-Aug-07 15:15 223 1 gusting 10 33.9
2020-Aug-07 15:01 217 2 gusting 7 34.4
2020-Aug-07 14:45 226 3 gusting 8 34.4
2020-Aug-07 14:30 188 4 gusting 11 33.9
2020-Aug-07 14:15 222 2 gusting 6 34.4
2020-Aug-07 14:00 197 3 gusting 8 34.4
2020-Aug-07 13:46 206 2 gusting 11 33.9
2020-Aug-07 13:30 164 4 gusting 10 33.9
2020-Aug-07 13:15 163 2 gusting 8 33.9
2020-Aug-07 13:01 161 3 gusting 6 33.9
2020-Aug-07 12:45 203 1 gusting 6 33.3
2020-Aug-07 12:30 212 32.8
2020-Aug-07 12:15 137 4 gusting 10 32.8
2020-Aug-07 12:00 151 32.2
2020-Aug-07 11:45 175 4 gusting 8 32.2
2020-Aug-07 11:30 172 2 gusting 9 32.2
2020-Aug-07 11:15 222 1 gusting 6 32.2
2020-Aug-07 11:00 168 0 gusting 6 31.7
2020-Aug-07 10:45 176 31.1
2020-Aug-07 10:31 224 0 gusting 6 31.1
2020-Aug-07 10:16 265 30.6
2020-Aug-07 10:01 224 29.4
2020-Aug-07 09:47 209 0 gusting 6 29.4
2020-Aug-07 09:31 227 2 gusting 6 28.9
2020-Aug-07 09:16 242 1 gusting 6 28.3
2020-Aug-07 09:01 230 0 gusting 6 27.8
2020-Aug-07 08:45 239 2 gusting 6 27.2
2020-Aug-07 08:30 259 0 gusting 6 27.2
2020-Aug-07 08:15 275 1 gusting 6 26.7
2020-Aug-07 08:00 226 2 gusting 6 26.1
2020-Aug-07 07:45 251 3 gusting 6 25.6
2020-Aug-07 07:30 238 25.6
2020-Aug-07 07:15 270 3 gusting 7 25.0
2020-Aug-07 07:00 274 2 gusting 6 25.0
2020-Aug-07 06:46 257 2 gusting 6 24.4
2020-Aug-07 06:32 269 1 gusting 5 24.4
2020-Aug-07 06:16 275 2 gusting 7 24.4
2020-Aug-07 06:01 271 2 gusting 6 24.4
2020-Aug-07 05:46 278 3 gusting 6 24.4
2020-Aug-07 05:30 269 1 gusting 7 24.4
2020-Aug-07 05:15 267 2 gusting 6 24.4
2020-Aug-07 05:00 261 25.0
2020-Aug-07 04:46 263 2 gusting 6 25.0
2020-Aug-07 04:31 265 25.0
2020-Aug-07 04:16 269 25.0
2020-Aug-07 04:00 273 25.0
2020-Aug-07 03:45 253 1 gusting 6 25.6
2020-Aug-07 03:31 258 3 gusting 7 25.6
2020-Aug-07 03:16 270 1 gusting 6 25.6
2020-Aug-07 03:00 266 25.6
2020-Aug-07 02:45 267 1 gusting 5 26.1
2020-Aug-07 02:30 255 0 gusting 5 26.1
2020-Aug-07 02:15 281 26.1
2020-Aug-07 02:00 291 2 gusting 6 26.7
2020-Aug-07 01:45 288 26.7
2020-Aug-07 01:30 280 1 gusting 6 26.7
2020-Aug-07 01:15 267 0 gusting 3 26.7
2020-Aug-07 01:00 270 26.7
2020-Aug-07 00:45 300 26.7
2020-Aug-07 00:30 272 26.7
2020-Aug-07 00:15 273 0 gusting 4 27.2
2020-Aug-07 00:00 261 2 gusting 5 27.2
2020-Aug-06 23:45 267 1 gusting 5 27.2
2020-Aug-06 23:30 261 0 gusting 3 27.2
2020-Aug-06 23:15 256 1 gusting 5 27.2
2020-Aug-06 23:00 264 1 gusting 4 27.2
2020-Aug-06 22:45 266 27.2
2020-Aug-06 22:30 267 27.2
2020-Aug-06 22:15 242 1 gusting 6 27.8
2020-Aug-06 22:00 265 2 gusting 6 27.8
2020-Aug-06 21:47 305 27.8
2020-Aug-06 21:32 249 3 gusting 7 28.3
2020-Aug-06 21:16 259 1 gusting 6 28.3
2020-Aug-06 21:01 263 2 gusting 6 28.3
2020-Aug-06 20:46 238 3 gusting 9 28.9
2020-Aug-06 20:32 236 5 gusting 10 28.9
2020-Aug-06 20:16 244 6 gusting 11 30.0
2020-Aug-06 20:00 226 4 gusting 10 30.6
2020-Aug-06 19:47 210 5 gusting 12 31.1
2020-Aug-06 19:32 232 3 gusting 13 32.2
2020-Aug-06 19:15 219 2 gusting 7 32.8
2020-Aug-06 19:01 244 5 gusting 10 33.9
2020-Aug-06 18:46 232 4 gusting 14 34.4
2020-Aug-06 18:31 234 6 gusting 13 35.0
2020-Aug-06 18:16 231 4 gusting 10 36.7
2020-Aug-06 18:01 214 4 gusting 8 37.8
2020-Aug-06 17:46 174 3 gusting 7 38.3
2020-Aug-06 17:31 171 4 gusting 8 38.3
2020-Aug-06 17:17 208 2 gusting 6 38.3
2020-Aug-06 17:01 235 3 gusting 7 38.9
2020-Aug-06 16:46 213 2 gusting 7 38.9
2020-Aug-06 16:31 207 1 gusting 8 38.9
2020-Aug-06 16:16 230 38.9
2020-Aug-06 16:02 223 3 gusting 6 38.9